Hannover, North Dakota
Current Conditions -  °F | °C
As of 8:55 AM on Thursday 30 Oct 2014 (Local Time) from KD57 Reporting Station
Haze Haze  
Wind Chill: 25°   Ceiling: 800
Heat Index: 34°   Visibility: 3mi
Dew Point: 30°   Wind: 13mph
Humidity: 87%   Direction: 350°N
Pressure: 30.28"   Gusts: NA
Location:  46.861°N, 101.466°W
Report Text: KD57 301355Z AUTO 35011KT 3SM BR OVC008 01/M01 A3028 RMK AO2 TSNO
Loading
Personal Weather Stations






























Interactive Weather Map
Tropical Storm Tracking
New forecast layout! Learn more

10-Day Weather Forecast

Advertisements
Track Severe Weather on mobile